createdAt,value
2023-01-13T00:01:29.934Z,98510.50
2023-01-13T00:03:57.657Z,98516.53
2023-01-13T00:06:26.469Z,98506.50
2023-01-13T00:08:54.921Z,98499.53
2023-01-13T00:11:23.295Z,98501.41
2023-01-13T00:13:50.953Z,98488.31
2023-01-13T00:16:20.760Z,98481.63
2023-01-13T00:18:51.115Z,98476.75
2023-01-13T00:21:22.053Z,98473.97
2023-01-13T00:23:52.011Z,98467.78
2023-01-13T00:26:23.712Z,98468.56
2023-01-13T00:28:55.684Z,98473.84
2023-01-13T00:31:23.712Z,98478.31
2023-01-13T00:33:51.626Z,98478.78
2023-01-13T00:36:20.655Z,98478.88
2023-01-13T00:38:48.820Z,98472.38
2023-01-13T00:41:20.380Z,98473.38
2023-01-13T00:43:48.937Z,98472.19
2023-01-13T00:46:20.953Z,98468.72
2023-01-13T00:48:49.626Z,98463.97
2023-01-13T00:51:20.740Z,98461.06
2023-01-13T00:53:52.482Z,98457.00
2023-01-13T00:56:39.187Z,98452.88
2023-01-13T00:59:12.422Z,98444.31
2023-01-13T01:01:43.775Z,98439.78
2023-01-13T01:04:12.092Z,98441.50
2023-01-13T01:06:39.761Z,98440.16
2023-01-13T01:09:07.381Z,98433.97
2023-01-13T01:11:35.429Z,98436.25
2023-01-13T01:14:04.621Z,98429.50
2023-01-13T01:16:33.275Z,98426.19
2023-01-13T01:19:02.474Z,98441.19
2023-01-13T01:21:30.796Z,98436.09
2023-01-13T01:24:01.290Z,98439.78
2023-01-13T01:26:31.282Z,98437.13
2023-01-13T01:29:01.973Z,98437.50
2023-01-13T01:31:33.078Z,98435.72
2023-01-13T01:34:01.842Z,98432.72
2023-01-13T01:36:34.743Z,98431.31
2023-01-13T01:39:03.263Z,98425.78
2023-01-13T01:41:34.403Z,98431.00
2023-01-13T01:44:43.601Z,98435.22
2023-01-13T01:47:16.223Z,98435.38
2023-01-13T01:49:46.117Z,98433.28
2023-01-13T01:52:34.399Z,98429.22
2023-01-13T01:55:07.019Z,98416.53
2023-01-13T01:57:47.823Z,98417.56
2023-01-13T02:00:16.076Z,98421.94
2023-01-13T02:02:48.059Z,98424.44
2023-01-13T02:05:16.288Z,98416.03
2023-01-13T02:07:47.816Z,98410.13
2023-01-13T02:10:19.521Z,98411.13
2023-01-13T02:12:49.844Z,98415.13
2023-01-13T02:16:01.050Z,98406.13
2023-01-13T02:18:43.722Z,98410.75
2023-01-13T02:21:42.633Z,98400.50
2023-01-13T02:24:56.512Z,98395.84
2023-01-13T02:27:33.052Z,98401.19
2023-01-13T02:30:47.442Z,98400.50
2023-01-13T02:33:30.673Z,98390.06
2023-01-13T02:36:51.454Z,98388.88
2023-01-13T02:39:46.109Z,98387.16
2023-01-13T02:42:45.757Z,98380.81
2023-01-13T02:45:17.824Z,98373.88
2023-01-13T02:47:50.223Z,98375.91
2023-01-13T02:50:27.660Z,98372.63
2023-01-13T02:53:02.419Z,98379.00
2023-01-13T02:55:35.299Z,98368.41
2023-01-13T02:58:08.103Z,98385.41
2023-01-13T03:00:37.924Z,98371.09
2023-01-13T03:03:05.665Z,98363.97
2023-01-13T03:05:34.542Z,98354.53
2023-01-13T03:08:19.183Z,98355.41
2023-01-13T03:11:14.749Z,98345.66
2023-01-13T03:14:08.655Z,98339.47
2023-01-13T03:17:43.378Z,98347.22
2023-01-13T03:20:26.486Z,98357.22
2023-01-13T03:23:16.082Z,98358.44
2023-01-13T03:26:26.651Z,98361.53
2023-01-13T03:29:11.991Z,98362.75
2023-01-13T03:31:51.157Z,98354.88
2023-01-13T03:34:21.867Z,98358.34
2023-01-13T03:36:54.506Z,98369.22
2023-01-13T03:39:30.466Z,98348.19
2023-01-13T03:42:17.730Z,98356.56
2023-01-13T03:45:14.761Z,98353.13
2023-01-13T03:47:54.166Z,98344.41
2023-01-13T03:50:31.125Z,98353.38
2023-01-13T03:53:11.502Z,98340.06
2023-01-13T03:55:45.524Z,98337.94
2023-01-13T03:58:33.860Z,98344.25
2023-01-13T04:01:16.614Z,98326.81
2023-01-13T04:04:03.878Z,98330.94
2023-01-13T04:06:46.868Z,98334.97
2023-01-13T04:09:33.195Z,98329.59
2023-01-13T04:12:51.853Z,98325.97
2023-01-13T04:15:27.331Z,98320.56
2023-01-13T04:18:22.207Z,98326.50
2023-01-13T04:20:54.733Z,98316.63
2023-01-13T04:23:23.298Z,98318.13
2023-01-13T04:25:51.919Z,98308.19
2023-01-13T04:28:20.025Z,98308.19
2023-01-13T04:30:48.558Z,98309.75
2023-01-13T04:33:19.047Z,98318.19
2023-01-13T04:35:48.624Z,98307.41
2023-01-13T04:38:22.146Z,98317.25
2023-01-13T04:40:50.033Z,98317.47
2023-01-13T04:43:17.822Z,98324.19
2023-01-13T04:45:45.567Z,98319.47
2023-01-13T04:48:13.855Z,98309.19
2023-01-13T04:50:41.607Z,98313.41
2023-01-13T04:53:09.528Z,98305.88
2023-01-13T04:55:37.147Z,98304.31
2023-01-13T04:58:10.717Z,98294.00
2023-01-13T05:00:39.222Z,98303.59
2023-01-13T05:03:06.960Z,98300.34
2023-01-13T05:05:34.587Z,98304.63
2023-01-13T05:08:02.143Z,98289.75
2023-01-13T05:10:29.916Z,98294.09
2023-01-13T05:13:15.899Z,98295.34
2023-01-13T05:16:03.622Z,98293.41
2023-01-13T05:18:32.591Z,98286.97
2023-01-13T05:21:00.201Z,98294.97
2023-01-13T05:23:46.874Z,98295.53
2023-01-13T05:26:14.675Z,98288.88
2023-01-13T05:28:42.207Z,98284.75
2023-01-13T05:31:12.037Z,98291.13
2023-01-13T05:33:39.680Z,98286.97
2023-01-13T05:36:07.907Z,98294.16
2023-01-13T05:38:35.592Z,98307.50
2023-01-13T05:41:21.462Z,98300.34
2023-01-13T05:43:49.021Z,98301.41
2023-01-13T05:46:17.700Z,98295.72
2023-01-13T05:48:46.126Z,98289.84
2023-01-13T05:51:14.118Z,98291.13
2023-01-13T05:53:41.817Z,98288.69
2023-01-13T05:56:10.656Z,98294.25
2023-01-13T05:58:38.717Z,98280.31
2023-01-13T06:01:09.058Z,98287.03
2023-01-13T06:03:37.794Z,98289.34
2023-01-13T06:06:06.051Z,98286.19
2023-01-13T06:08:33.939Z,98276.44
2023-01-13T06:11:01.985Z,98289.16
2023-01-13T06:13:31.053Z,98281.63
2023-01-13T06:15:59.455Z,98284.75
2023-01-13T06:18:28.347Z,98290.88
2023-01-13T06:20:56.707Z,98284.06
2023-01-13T06:23:24.753Z,98285.09
2023-01-13T06:26:23.906Z,98289.38
2023-01-13T06:28:51.507Z,98293.56
2023-01-13T06:31:20.121Z,98297.25
2023-01-13T06:33:59.777Z,98301.69
2023-01-13T06:36:35.469Z,98306.66
2023-01-13T06:39:05.083Z,98318.28
2023-01-13T06:41:52.578Z,98313.44
2023-01-13T06:44:21.233Z,98306.75
2023-01-13T06:46:48.969Z,98315.63
2023-01-13T06:49:16.559Z,98310.31
2023-01-13T06:51:44.367Z,98304.66
2023-01-13T06:54:12.410Z,98310.66
2023-01-13T06:56:40.227Z,98301.63
2023-01-13T06:59:07.885Z,98304.72
2023-01-13T07:01:35.540Z,98293.34
2023-01-13T07:04:03.251Z,98295.03
2023-01-13T07:06:30.877Z,98292.06
2023-01-13T07:08:58.582Z,98294.00
2023-01-13T07:11:29.027Z,98293.28
2023-01-13T07:14:19.759Z,98296.31
2023-01-13T07:16:47.841Z,98300.19
2023-01-13T07:19:23.116Z,98305.94
2023-01-13T07:21:52.689Z,98295.53
2023-01-13T07:24:20.841Z,98294.38
2023-01-13T07:26:48.541Z,98310.00
2023-01-13T07:29:16.325Z,98305.19
2023-01-13T07:31:44.047Z,98299.97
2023-01-13T07:34:11.607Z,98299.28
2023-01-13T07:36:39.344Z,98294.53
2023-01-13T07:39:07.745Z,98299.94
2023-01-13T07:41:53.968Z,98306.47
2023-01-13T07:44:21.764Z,98319.25
2023-01-13T07:46:52.169Z,98311.94
2023-01-13T07:49:22.696Z,98317.06
2023-01-13T07:51:50.565Z,98327.81
2023-01-13T07:54:19.423Z,98320.97
2023-01-13T07:56:47.176Z,98327.47
2023-01-13T07:59:14.805Z,98315.41
2023-01-13T08:01:47.897Z,98320.69
2023-01-13T08:04:15.729Z,98316.06
2023-01-13T08:06:43.749Z,98318.13
2023-01-13T08:09:11.448Z,98313.38
2023-01-13T08:11:39.051Z,98333.78
2023-01-13T08:14:06.661Z,98327.38
2023-01-13T08:16:35.094Z,98325.53
2023-01-13T08:19:02.975Z,98317.59
2023-01-13T08:21:30.671Z,98324.06
2023-01-13T08:23:58.391Z,98334.06
2023-01-13T08:26:26.064Z,98321.59
2023-01-13T08:28:53.718Z,98327.63
2023-01-13T08:31:21.766Z,98331.38
2023-01-13T08:33:49.463Z,98335.66
2023-01-13T08:36:18.363Z,98341.06
2023-01-13T08:38:46.053Z,98346.47
2023-01-13T08:41:36.829Z,98346.41
2023-01-13T08:44:05.200Z,98354.34
2023-01-13T08:46:33.069Z,98352.13
2023-01-13T08:49:00.971Z,98356.13
2023-01-13T08:51:28.863Z,98378.88
2023-01-13T08:53:56.705Z,98392.56
2023-01-13T08:56:24.404Z,98398.72
2023-01-13T08:58:52.138Z,98412.84
2023-01-13T09:01:23.598Z,98417.47
2023-01-13T09:03:51.588Z,98424.25
2023-01-13T09:06:19.930Z,98422.38
2023-01-13T09:08:48.296Z,98438.06
2023-01-13T09:11:46.308Z,98438.19
2023-01-13T09:14:22.376Z,98435.34
2023-01-13T09:16:50.503Z,98445.72
2023-01-13T09:19:18.444Z,98443.09
2023-01-13T09:21:46.346Z,98450.91
2023-01-13T09:24:14.372Z,98459.03
2023-01-13T09:26:42.310Z,98452.50
2023-01-13T09:29:10.066Z,98456.38
2023-01-13T09:31:37.763Z,98454.00
2023-01-13T09:34:26.177Z,98460.31
2023-01-13T09:36:54.120Z,98463.97
2023-01-13T09:39:22.646Z,98478.56
2023-01-13T09:42:25.602Z,98475.56
2023-01-13T09:45:13.034Z,98479.78
2023-01-13T09:48:05.393Z,98477.91
2023-01-13T09:51:29.076Z,98486.53
2023-01-13T09:54:25.979Z,98491.44
2023-01-13T09:56:53.990Z,98491.25
2023-01-13T09:59:21.823Z,98475.88
2023-01-13T10:02:07.601Z,98484.94
2023-01-13T10:04:35.498Z,98482.47
2023-01-13T10:07:05.751Z,98489.84
2023-01-13T10:09:51.986Z,98497.41
2023-01-13T10:12:45.985Z,98499.81
2023-01-13T10:15:20.525Z,98506.25
2023-01-13T10:17:58.583Z,98499.47
2023-01-13T10:20:52.849Z,98502.84
2023-01-13T10:23:51.375Z,98504.00
2023-01-13T10:27:01.847Z,98512.72
2023-01-13T10:29:31.752Z,98506.78
2023-01-13T10:32:00.898Z,98516.50
2023-01-13T10:34:29.025Z,98520.72
2023-01-13T10:37:07.224Z,98522.06
2023-01-13T10:39:47.457Z,98523.25
2023-01-13T10:42:21.893Z,98515.50
2023-01-13T10:45:01.204Z,98507.78
2023-01-13T10:47:37.278Z,98513.03
2023-01-13T10:50:13.826Z,98514.59
2023-01-13T10:53:03.720Z,98505.03
2023-01-13T10:55:38.441Z,98512.25
2023-01-13T10:58:20.030Z,98509.22
2023-01-13T11:00:49.621Z,98511.38
2023-01-13T11:03:21.959Z,98542.34
2023-01-13T11:06:01.133Z,98513.84
2023-01-13T11:08:43.924Z,98536.16
2023-01-13T11:11:35.069Z,98538.88
2023-01-13T11:14:26.736Z,98543.38
2023-01-13T11:16:59.049Z,98551.44
2023-01-13T11:19:31.181Z,98550.75
2023-01-13T11:22:20.823Z,98558.03
2023-01-13T11:24:58.507Z,98555.00
2023-01-13T11:27:40.182Z,98565.53
2023-01-13T11:30:35.592Z,98561.53
2023-01-13T11:33:36.569Z,98558.78
2023-01-13T11:36:12.286Z,98571.94
2023-01-13T11:38:50.248Z,98578.19
2023-01-13T11:41:39.318Z,98579.38
2023-01-13T11:44:38.849Z,98573.88
2023-01-13T11:47:09.349Z,98588.94
2023-01-13T11:49:38.383Z,98575.78
2023-01-13T11:52:55.605Z,98566.78
2023-01-13T11:55:28.951Z,98582.91
2023-01-13T11:58:20.189Z,98584.09
2023-01-13T12:01:34.144Z,98599.44
2023-01-13T12:04:37.597Z,98565.81
2023-01-13T12:08:00.709Z,98578.91
2023-01-13T12:10:58.794Z,98577.34
2023-01-13T12:13:54.505Z,98570.25
2023-01-13T12:16:31.493Z,98565.81
2023-01-13T12:19:21.841Z,98562.78
2023-01-13T12:22:08.687Z,98570.09
2023-01-13T12:24:41.558Z,98570.91
2023-01-13T12:27:47.375Z,98583.75
2023-01-13T12:30:41.024Z,98587.59
2023-01-13T12:33:43.281Z,98585.09
2023-01-13T12:36:47.390Z,98605.34
2023-01-13T12:39:33.716Z,98616.13
2023-01-13T12:42:53.468Z,98605.84
2023-01-13T12:45:30.885Z,98615.41
2023-01-13T12:48:00.297Z,98612.94
2023-01-13T12:50:28.107Z,98601.41
2023-01-13T12:52:58.570Z,98616.25
2023-01-13T12:55:35.620Z,98605.50
2023-01-13T12:58:09.270Z,98604.47
2023-01-13T13:00:44.656Z,98602.75
2023-01-13T13:03:12.475Z,98606.53
2023-01-13T13:06:23.982Z,98625.28
2023-01-13T13:09:03.333Z,98621.31
2023-01-13T13:11:57.918Z,98602.25
2023-01-13T13:14:40.469Z,98599.41
2023-01-13T13:17:20.541Z,98597.38
2023-01-13T13:19:50.046Z,98590.13
2023-01-13T13:22:36.878Z,98599.53
2023-01-13T13:25:04.472Z,98571.16
2023-01-13T13:27:38.076Z,98580.09
2023-01-13T13:30:28.070Z,98576.16
2023-01-13T13:33:34.727Z,98571.88
2023-01-13T13:36:35.514Z,98574.28
2023-01-13T13:39:47.889Z,98577.34
2023-01-13T13:42:43.648Z,98576.75
2023-01-13T13:45:43.140Z,98580.97
2023-01-13T13:48:30.698Z,98578.75
2023-01-13T13:51:03.739Z,98595.06
2023-01-13T13:53:38.668Z,98591.13
2023-01-13T13:56:18.939Z,98595.78
2023-01-13T13:58:48.767Z,98608.63
2023-01-13T14:01:38.847Z,98619.00
2023-01-13T14:04:16.619Z,98617.47
2023-01-13T14:06:57.499Z,98630.72
2023-01-13T14:09:40.291Z,98624.63
2023-01-13T14:12:19.723Z,98627.22
2023-01-13T14:14:49.360Z,98622.78
2023-01-13T14:17:28.332Z,98641.72
2023-01-13T14:20:07.815Z,98656.16
2023-01-13T14:22:35.675Z,98648.69
2023-01-13T14:25:41.379Z,98660.97
2023-01-13T14:28:39.439Z,98673.56
2023-01-13T14:31:09.593Z,98677.56
2023-01-13T14:33:49.451Z,98693.19
2023-01-13T14:36:47.857Z,98707.16
2023-01-13T14:39:15.561Z,98708.91
2023-01-13T14:41:43.224Z,98709.56
2023-01-13T14:44:28.868Z,98714.53
2023-01-13T14:47:03.537Z,98714.06
2023-01-13T14:49:58.818Z,98703.13
2023-01-13T14:52:34.886Z,98706.44
2023-01-13T14:55:10.117Z,98706.09
2023-01-13T14:57:41.342Z,98728.69
2023-01-13T15:00:15.154Z,98733.78
2023-01-13T15:02:57.908Z,98737.16
2023-01-13T15:05:31.602Z,98746.63
2023-01-13T15:08:09.768Z,98765.88
2023-01-13T15:10:59.608Z,98761.03
2023-01-13T15:13:35.529Z,98763.72
2023-01-13T15:16:16.818Z,98774.88
2023-01-13T15:18:45.735Z,98752.38
2023-01-13T15:21:15.652Z,98752.53
2023-01-13T15:23:44.298Z,98761.31
2023-01-13T15:26:18.707Z,98759.75
2023-01-13T15:28:47.278Z,98756.78
2023-01-13T15:31:16.479Z,98753.91
2023-01-13T15:33:44.218Z,98760.78
2023-01-13T15:36:27.363Z,98761.84
2023-01-13T15:38:56.359Z,98763.88
2023-01-13T15:41:43.999Z,98767.63
2023-01-13T15:44:32.691Z,98772.31
2023-01-13T15:47:05.285Z,98776.34
2023-01-13T15:49:42.552Z,98777.28
2023-01-13T15:52:28.513Z,98782.91
2023-01-13T15:55:01.318Z,98791.19
2023-01-13T15:57:34.636Z,98792.31
2023-01-13T16:00:13.638Z,98799.06
2023-01-13T16:02:41.392Z,98796.00
2023-01-13T16:05:10.092Z,98787.56
2023-01-13T16:07:38.587Z,98796.19
2023-01-13T16:10:23.590Z,98799.41
2023-01-13T16:12:51.677Z,98811.81
2023-01-13T16:15:22.843Z,98812.69
2023-01-13T16:18:00.138Z,98823.06
2023-01-13T16:20:28.660Z,98834.34
2023-01-13T16:22:56.609Z,98838.16
2023-01-13T16:25:26.951Z,98842.31
2023-01-13T16:27:54.869Z,98839.31
2023-01-13T16:30:36.093Z,98849.34
2023-01-13T16:33:04.337Z,98841.03
2023-01-13T16:35:32.271Z,98843.41
2023-01-13T16:38:00.351Z,98852.03
2023-01-13T16:40:35.084Z,98852.72
2023-01-13T16:43:04.802Z,98843.06
2023-01-13T16:45:33.704Z,98857.91
2023-01-13T16:48:01.526Z,98851.81
2023-01-13T16:50:40.961Z,98850.88
2023-01-13T16:53:09.831Z,98850.94
2023-01-13T16:55:39.796Z,98864.53
2023-01-13T16:58:19.299Z,98861.16
2023-01-13T17:00:48.036Z,98864.06
2023-01-13T17:03:17.068Z,98866.97
2023-01-13T17:05:47.526Z,98863.66
2023-01-13T17:08:19.837Z,98870.06
2023-01-13T17:10:48.290Z,98880.00
2023-01-13T17:13:17.365Z,98877.25
2023-01-13T17:15:45.667Z,98894.59
2023-01-13T17:18:13.593Z,98890.97
2023-01-13T17:20:41.481Z,98890.81
2023-01-13T17:23:09.284Z,98892.47
2023-01-13T17:25:36.958Z,98908.97
2023-01-13T17:28:04.918Z,98917.50
2023-01-13T17:30:32.743Z,98919.16
2023-01-13T17:33:00.527Z,98919.84
2023-01-13T17:35:28.229Z,98921.63
2023-01-13T17:38:01.980Z,98926.72
2023-01-13T17:40:29.903Z,98927.91
2023-01-13T17:42:57.793Z,98932.81
2023-01-13T17:45:26.445Z,98924.50
2023-01-13T17:47:59.990Z,98945.69
2023-01-13T17:50:27.876Z,98930.59
2023-01-13T17:52:55.910Z,98921.41
2023-01-13T17:55:24.080Z,98941.72
2023-01-13T17:57:51.640Z,98938.28
2023-01-13T18:00:20.328Z,98948.47
2023-01-13T18:02:48.172Z,98952.81
2023-01-13T18:05:16.058Z,98960.59
2023-01-13T18:07:43.764Z,98958.69
2023-01-13T18:10:12.376Z,98954.09
2023-01-13T18:12:40.337Z,98959.97
2023-01-13T18:15:34.045Z,98956.53
2023-01-13T18:18:01.983Z,98964.59
2023-01-13T18:21:07.984Z,98963.72
2023-01-13T18:23:54.526Z,98960.97
2023-01-13T18:26:41.003Z,98961.75
2023-01-13T18:29:08.847Z,98955.97
2023-01-13T18:31:36.759Z,98972.03
2023-01-13T18:34:04.440Z,98982.69
2023-01-13T18:36:32.086Z,98986.63
2023-01-13T18:39:00.120Z,98984.88
2023-01-13T18:41:46.448Z,98990.63
2023-01-13T18:44:14.227Z,98996.19
2023-01-13T18:46:41.899Z,99011.22
2023-01-13T18:49:09.515Z,99007.94
2023-01-13T18:51:37.757Z,99019.72
2023-01-13T18:54:05.820Z,99028.28
2023-01-13T18:56:33.663Z,99024.94
2023-01-13T18:59:02.429Z,99028.84
2023-01-13T19:01:30.312Z,99033.44
2023-01-13T19:04:04.666Z,99040.31
2023-01-13T19:06:33.844Z,99045.63
2023-01-13T19:09:08.403Z,99043.03
2023-01-13T19:11:36.676Z,99048.97
2023-01-13T19:14:05.220Z,99057.16
2023-01-13T19:16:32.973Z,99054.88
2023-01-13T19:19:02.049Z,99059.25
2023-01-13T19:21:29.504Z,99057.00
2023-01-13T19:23:57.596Z,99065.47
2023-01-13T19:26:25.209Z,99072.38
2023-01-13T19:28:53.276Z,99083.69
2023-01-13T19:31:20.964Z,99091.13
2023-01-13T19:33:48.582Z,99095.81
2023-01-13T19:36:16.255Z,99095.13
2023-01-13T19:38:44.037Z,99101.06
2023-01-13T19:41:31.685Z,99108.69
2023-01-13T19:44:17.692Z,99120.47
2023-01-13T19:46:45.323Z,99122.94
2023-01-13T19:49:13.225Z,99131.41
2023-01-13T19:51:40.939Z,99125.06
2023-01-13T19:54:08.573Z,99125.59
2023-01-13T19:56:36.309Z,99118.66
2023-01-13T19:59:03.930Z,99130.25
2023-01-13T20:01:36.033Z,99130.88
2023-01-13T20:04:05.746Z,99137.94
2023-01-13T20:06:33.455Z,99140.19
2023-01-13T20:09:00.980Z,99142.34
2023-01-13T20:11:31.231Z,99139.63
2023-01-13T20:14:00.678Z,99131.78
2023-01-13T20:16:30.145Z,99132.69
2023-01-13T20:18:57.864Z,99140.19
2023-01-13T20:21:25.515Z,99142.81
2023-01-13T20:23:53.710Z,99141.06
2023-01-13T20:26:21.792Z,99144.81
2023-01-13T20:28:49.404Z,99139.31
2023-01-13T20:31:17.265Z,99143.44
2023-01-13T20:33:49.438Z,99151.50
2023-01-13T20:36:33.449Z,99146.03
2023-01-13T20:39:05.217Z,99157.59
2023-01-13T20:41:51.158Z,99155.59
2023-01-13T20:44:21.745Z,99154.41
2023-01-13T20:46:49.541Z,99152.47
2023-01-13T20:49:17.279Z,99151.59
2023-01-13T20:51:44.874Z,99157.22
2023-01-13T20:54:12.605Z,99155.28
2023-01-13T20:56:40.980Z,99147.63
2023-01-13T20:59:09.561Z,99161.44
2023-01-13T21:01:38.039Z,99168.38
2023-01-13T21:04:06.955Z,99158.63
2023-01-13T21:06:35.315Z,99163.78
2023-01-13T21:09:03.499Z,99156.47
2023-01-13T21:11:49.601Z,99159.19
2023-01-13T21:14:41.265Z,99166.56
2023-01-13T21:17:29.292Z,99163.78
2023-01-13T21:19:57.196Z,99183.03
2023-01-13T21:22:50.010Z,99204.41
2023-01-13T21:25:19.602Z,99205.06
2023-01-13T21:27:47.479Z,99186.88
2023-01-13T21:30:17.038Z,99190.56
2023-01-13T21:32:45.652Z,99201.34
2023-01-13T21:35:14.943Z,99198.88
2023-01-13T21:37:44.188Z,99204.63
2023-01-13T21:40:14.124Z,99212.06
2023-01-13T21:43:00.863Z,99211.88
2023-01-13T21:45:47.209Z,99213.22
2023-01-13T21:48:14.889Z,99212.78
2023-01-13T21:50:42.680Z,99219.72
2023-01-13T21:53:11.037Z,99215.88
2023-01-13T21:55:39.646Z,99222.06
2023-01-13T21:58:15.100Z,99223.69
2023-01-13T22:00:44.757Z,99232.81
2023-01-13T22:03:15.085Z,99246.38
2023-01-13T22:05:42.818Z,99251.06
2023-01-13T22:08:13.881Z,99253.75
2023-01-13T22:11:00.312Z,99251.69
2023-01-13T22:13:48.008Z,99262.69
2023-01-13T22:16:16.383Z,99262.31
2023-01-13T22:18:44.021Z,99266.31
2023-01-13T22:21:11.748Z,99249.94
2023-01-13T22:23:39.472Z,99273.34
2023-01-13T22:26:08.155Z,99249.84
2023-01-13T22:28:46.571Z,99265.19
2023-01-13T22:31:17.688Z,99264.56
2023-01-13T22:33:47.043Z,99267.22
2023-01-13T22:36:15.929Z,99264.97
2023-01-13T22:38:43.808Z,99275.91
2023-01-13T22:41:11.786Z,99267.22
2023-01-13T22:43:40.043Z,99261.72
2023-01-13T22:46:11.330Z,99253.44
2023-01-13T22:48:40.561Z,99262.69
2023-01-13T22:51:15.066Z,99264.44
2023-01-13T22:53:44.086Z,99266.13
2023-01-13T22:56:24.199Z,99264.09
2023-01-13T22:58:57.775Z,99255.88
2023-01-13T23:01:28.071Z,99262.25
2023-01-13T23:03:57.014Z,99264.03
2023-01-13T23:06:25.882Z,99250.69
2023-01-13T23:08:54.445Z,99253.19
2023-01-13T23:11:25.036Z,99251.28
2023-01-13T23:13:59.600Z,99250.00
2023-01-13T23:16:29.449Z,99246.22
2023-01-13T23:18:57.271Z,99249.53
2023-01-13T23:21:28.999Z,99256.47
2023-01-13T23:24:00.323Z,99271.47
2023-01-13T23:26:30.013Z,99266.19
2023-01-13T23:29:05.146Z,99268.78
2023-01-13T23:31:33.204Z,99261.88
2023-01-13T23:34:01.045Z,99256.47
2023-01-13T23:36:29.710Z,99253.81
2023-01-13T23:38:59.303Z,99242.38
2023-01-13T23:41:28.559Z,99248.78
2023-01-13T23:43:58.712Z,99238.94
2023-01-13T23:46:29.237Z,99247.25
2023-01-13T23:48:57.036Z,99250.16
2023-01-13T23:51:26.292Z,99239.59
2023-01-13T23:53:54.179Z,99239.97
2023-01-13T23:56:25.286Z,99243.50
2023-01-13T23:58:53.449Z,99240.06
